createdAt,value
2016-10-26T00:00:32.325Z,1021.48
2016-10-26T00:01:32.307Z,1021.48
2016-10-26T00:02:32.290Z,1021.52
2016-10-26T00:03:32.271Z,1021.5
2016-10-26T00:04:32.260Z,1021.52
2016-10-26T00:05:32.238Z,1021.5
2016-10-26T00:06:32.224Z,1021.49
2016-10-26T00:07:32.205Z,1021.54
2016-10-26T00:08:32.187Z,1021.5
2016-10-26T00:09:32.173Z,1021.54
2016-10-26T00:10:32.153Z,1021.51
2016-10-26T00:11:32.135Z,1021.53
2016-10-26T00:12:32.118Z,1021.52
2016-10-26T00:13:32.101Z,1021.5
2016-10-26T00:14:32.085Z,1021.54
2016-10-26T00:15:32.068Z,1021.5
2016-10-26T00:16:32.047Z,1021.54
2016-10-26T00:17:32.034Z,1021.58
2016-10-26T00:18:32.013Z,1021.63
2016-10-26T00:19:31.997Z,1021.62
2016-10-26T00:20:31.980Z,1021.65
2016-10-26T00:21:31.965Z,1021.59
2016-10-26T00:22:31.948Z,1021.64
2016-10-26T00:23:31.935Z,1021.62
2016-10-26T00:24:31.914Z,1021.62
2016-10-26T00:25:31.896Z,1021.6
2016-10-26T00:26:31.878Z,1021.63
2016-10-26T00:27:31.871Z,1021.63
2016-10-26T00:28:31.844Z,1021.6
2016-10-26T00:29:31.827Z,1021.61
2016-10-26T00:30:31.810Z,1021.56
2016-10-26T00:31:31.795Z,1021.56
2016-10-26T00:32:31.776Z,1021.58
2016-10-26T00:33:31.758Z,1021.61
2016-10-26T00:34:31.739Z,1021.61
2016-10-26T00:35:31.726Z,1021.6
2016-10-26T00:36:31.709Z,1021.6
2016-10-26T00:37:31.692Z,1021.57
2016-10-26T00:38:31.674Z,1021.59
2016-10-26T00:39:31.652Z,1021.57
2016-10-26T00:40:31.637Z,1021.58
2016-10-26T00:41:31.619Z,1021.64
2016-10-26T00:42:31.604Z,1021.6
2016-10-26T00:43:31.587Z,1021.57
2016-10-26T00:44:31.570Z,1021.66
2016-10-26T00:45:31.554Z,1021.62
2016-10-26T00:46:31.536Z,1021.59
2016-10-26T00:47:31.518Z,1021.6
2016-10-26T00:48:31.501Z,1021.62
2016-10-26T00:49:31.482Z,1021.63
2016-10-26T00:50:31.467Z,1021.62
2016-10-26T00:51:31.455Z,1021.61
2016-10-26T00:52:31.434Z,1021.64
2016-10-26T00:53:31.415Z,1021.62
2016-10-26T00:54:31.398Z,1021.61
2016-10-26T00:55:31.379Z,1021.59
2016-10-26T00:56:31.364Z,1021.61
2016-10-26T00:57:31.348Z,1021.62
2016-10-26T00:58:31.329Z,1021.67
2016-10-26T00:59:31.312Z,1021.66
2016-10-26T01:00:31.293Z,1021.69
2016-10-26T01:01:31.278Z,1021.68
2016-10-26T01:02:31.260Z,1021.7
2016-10-26T01:03:31.245Z,1021.77
2016-10-26T01:04:31.226Z,1021.72
2016-10-26T01:05:31.205Z,1021.74
2016-10-26T01:06:31.192Z,1021.73
2016-10-26T01:07:31.174Z,1021.73
2016-10-26T01:08:31.156Z,1021.68
2016-10-26T01:09:31.138Z,1021.68
2016-10-26T01:10:31.123Z,1021.68
2016-10-26T01:11:31.107Z,1021.7
2016-10-26T01:12:31.088Z,1021.67
2016-10-26T01:13:31.071Z,1021.67
2016-10-26T01:14:31.056Z,1021.63
2016-10-26T01:15:31.036Z,1021.6
2016-10-26T01:16:31.018Z,1021.61
2016-10-26T01:17:31.005Z,1021.57
2016-10-26T01:18:30.985Z,1021.57
2016-10-26T01:19:30.970Z,1021.57
2016-10-26T01:20:30.951Z,1021.54
2016-10-26T01:21:30.932Z,1021.52
2016-10-26T01:22:30.916Z,1021.53
2016-10-26T01:23:30.897Z,1021.55
2016-10-26T01:24:30.887Z,1021.54
2016-10-26T01:25:30.865Z,1021.55
2016-10-26T01:26:30.847Z,1021.58
2016-10-26T01:27:30.830Z,1021.55
2016-10-26T01:28:30.815Z,1021.54
2016-10-26T01:29:30.798Z,1021.51
2016-10-26T01:30:30.778Z,1021.48
2016-10-26T01:31:30.766Z,1021.5
2016-10-26T01:32:30.744Z,1021.54
2016-10-26T01:33:30.727Z,1021.47
2016-10-26T01:34:30.712Z,1021.48
2016-10-26T01:35:30.693Z,1021.52
2016-10-26T01:36:30.676Z,1021.5
2016-10-26T01:37:30.658Z,1021.5
2016-10-26T01:38:30.641Z,1021.51
2016-10-26T01:39:30.624Z,1021.49
2016-10-26T01:40:30.607Z,1021.55
2016-10-26T01:41:30.591Z,1021.57
2016-10-26T01:42:30.572Z,1021.59
2016-10-26T01:43:30.555Z,1021.57
2016-10-26T01:44:30.536Z,1021.57
2016-10-26T01:45:30.518Z,1021.56
2016-10-26T01:46:30.502Z,1021.57
2016-10-26T01:47:30.485Z,1021.55
2016-10-26T01:48:30.472Z,1021.59
2016-10-26T01:49:30.653Z,1021.59
2016-10-26T01:50:30.436Z,1021.58
2016-10-26T01:51:30.424Z,1021.56
2016-10-26T01:52:30.398Z,1021.55
2016-10-26T01:53:30.382Z,1021.52
2016-10-26T01:54:30.364Z,1021.53
2016-10-26T01:55:30.352Z,1021.51
2016-10-26T01:56:30.330Z,1021.52
2016-10-26T01:57:30.313Z,1021.49
2016-10-26T01:58:30.296Z,1021.41
2016-10-26T01:59:30.278Z,1021.46
2016-10-26T02:00:30.265Z,1021.42
2016-10-26T02:01:30.244Z,1021.41
2016-10-26T02:02:30.227Z,1021.45
2016-10-26T02:03:30.212Z,1021.4
2016-10-26T02:04:30.238Z,1021.41
2016-10-26T02:05:30.175Z,1021.43
2016-10-26T02:06:30.158Z,1021.4
2016-10-26T02:07:30.141Z,1021.45
2016-10-26T02:08:30.123Z,1021.47
2016-10-26T02:09:30.107Z,1021.45
2016-10-26T02:10:30.089Z,1021.42
2016-10-26T02:11:30.072Z,1021.45
2016-10-26T02:12:30.054Z,1021.44
2016-10-26T02:13:30.037Z,1021.48
2016-10-26T02:14:30.024Z,1021.52
2016-10-26T02:15:30.003Z,1021.52
2016-10-26T02:16:29.984Z,1021.51
2016-10-26T02:17:29.972Z,1021.53
2016-10-26T02:18:29.951Z,1021.57
2016-10-26T02:19:29.932Z,1021.54
2016-10-26T02:20:29.917Z,1021.6
2016-10-26T02:21:29.902Z,1021.54
2016-10-26T02:22:29.880Z,1021.6
2016-10-26T02:23:29.868Z,1021.6
2016-10-26T02:24:29.848Z,1021.6
2016-10-26T02:25:29.830Z,1021.62
2016-10-26T02:26:29.812Z,1021.69
2016-10-26T02:27:29.796Z,1021.63
2016-10-26T02:28:29.779Z,1021.61
2016-10-26T02:29:29.762Z,1021.6
2016-10-26T02:30:29.745Z,1021.66
2016-10-26T02:31:29.728Z,1021.64
2016-10-26T02:32:29.710Z,1021.61
2016-10-26T02:33:29.693Z,1021.61
2016-10-26T02:34:29.677Z,1021.67
2016-10-26T02:35:29.663Z,1021.64
2016-10-26T02:36:29.642Z,1021.66
2016-10-26T02:37:29.623Z,1021.64
2016-10-26T02:38:29.605Z,1021.65
2016-10-26T02:39:29.590Z,1021.61
2016-10-26T02:40:29.573Z,1021.65
2016-10-26T02:41:29.556Z,1021.64
2016-10-26T02:42:29.537Z,1021.67
2016-10-26T02:43:29.519Z,1021.62
2016-10-26T02:44:29.502Z,1021.6
2016-10-26T02:45:29.487Z,1021.62
2016-10-26T02:46:29.470Z,1021.6
2016-10-26T02:47:29.455Z,1021.65
2016-10-26T02:48:29.432Z,1021.66
2016-10-26T02:49:29.420Z,1021.62
2016-10-26T02:50:29.399Z,1021.62
2016-10-26T02:51:29.382Z,1021.64
2016-10-26T02:52:29.366Z,1021.6
2016-10-26T02:53:29.347Z,1021.59
2016-10-26T02:54:29.334Z,1021.56
2016-10-26T02:55:29.314Z,1021.54
2016-10-26T02:56:29.295Z,1021.56
2016-10-26T02:57:29.278Z,1021.55
2016-10-26T02:58:29.308Z,1021.55
2016-10-26T02:59:29.245Z,1021.56
2016-10-26T03:00:29.227Z,1021.53
2016-10-26T03:01:29.210Z,1021.5
2016-10-26T03:02:29.193Z,1021.51
2016-10-26T03:03:29.176Z,1021.48
2016-10-26T03:04:29.157Z,1021.52
2016-10-26T03:05:29.141Z,1021.5
2016-10-26T03:06:29.127Z,1021.46
2016-10-26T03:07:29.107Z,1021.47
2016-10-26T03:08:29.092Z,1021.51
2016-10-26T03:09:29.072Z,1021.5
2016-10-26T03:10:29.055Z,1021.47
2016-10-26T03:11:29.036Z,1021.5
2016-10-26T03:12:29.019Z,1021.43
2016-10-26T03:13:29.002Z,1021.46
2016-10-26T03:14:28.986Z,1021.43
2016-10-26T03:15:28.968Z,1021.45
2016-10-26T03:16:28.950Z,1021.5
2016-10-26T03:17:28.931Z,1021.5
2016-10-26T03:18:28.917Z,1021.53
2016-10-26T03:19:28.900Z,1021.5
2016-10-26T03:20:28.883Z,1021.51
2016-10-26T03:21:28.863Z,1021.53
2016-10-26T03:22:28.846Z,1021.55
2016-10-26T03:23:28.827Z,1021.57
2016-10-26T03:24:28.811Z,1021.57
2016-10-26T03:25:28.797Z,1021.58
2016-10-26T03:26:28.777Z,1021.57
2016-10-26T03:27:28.762Z,1021.58
2016-10-26T03:28:28.743Z,1021.56
2016-10-26T03:29:28.726Z,1021.58
2016-10-26T03:30:28.707Z,1021.58
2016-10-26T03:31:28.693Z,1021.58
2016-10-26T03:32:28.676Z,1021.64
2016-10-26T03:33:28.659Z,1021.62
2016-10-26T03:34:28.641Z,1021.65
2016-10-26T03:35:28.622Z,1021.66
2016-10-26T03:36:28.605Z,1021.64
2016-10-26T03:37:28.588Z,1021.7
2016-10-26T03:38:28.572Z,1021.64
2016-10-26T03:39:28.553Z,1021.65
2016-10-26T03:40:28.536Z,1021.66
2016-10-26T03:41:28.523Z,1021.65
2016-10-26T03:42:28.504Z,1021.66
2016-10-26T03:43:28.483Z,1021.67
2016-10-26T03:44:28.468Z,1021.67
2016-10-26T03:45:28.450Z,1021.67
2016-10-26T03:46:28.432Z,1021.7
2016-10-26T03:47:28.415Z,1021.7
2016-10-26T03:48:28.398Z,1021.68
2016-10-26T03:49:28.381Z,1021.63
2016-10-26T03:50:28.362Z,1021.62
2016-10-26T03:51:28.348Z,1021.62
2016-10-26T03:52:28.329Z,1021.59
2016-10-26T03:53:28.311Z,1021.59
2016-10-26T03:54:28.293Z,1021.57
2016-10-26T03:55:28.283Z,1021.55
2016-10-26T03:56:28.260Z,1021.51
2016-10-26T03:57:28.239Z,1021.53
2016-10-26T03:58:28.228Z,1021.52
2016-10-26T03:59:28.207Z,1021.54
2016-10-26T04:00:28.194Z,1021.55
2016-10-26T04:01:28.172Z,1021.53
2016-10-26T04:02:28.154Z,1021.52
2016-10-26T04:03:28.138Z,1021.59
2016-10-26T04:04:28.120Z,1021.62
2016-10-26T04:05:28.103Z,1021.64
2016-10-26T04:06:28.086Z,1021.65
2016-10-26T04:07:28.066Z,1021.69
2016-10-26T04:08:28.050Z,1021.71
2016-10-26T04:09:28.034Z,1021.76
2016-10-26T04:10:28.017Z,1021.74
2016-10-26T04:11:28.000Z,1021.78
2016-10-26T04:12:27.989Z,1021.79
2016-10-26T04:13:27.966Z,1021.79
2016-10-26T04:14:27.947Z,1021.78
2016-10-26T04:15:27.931Z,1021.77
2016-10-26T04:16:27.914Z,1021.83
2016-10-26T04:17:27.900Z,1021.8
2016-10-26T04:18:27.880Z,1021.82
2016-10-26T04:19:27.863Z,1021.86
2016-10-26T04:20:27.848Z,1021.86
2016-10-26T04:21:27.828Z,1021.88
2016-10-26T04:22:27.858Z,1021.87
2016-10-26T04:23:27.792Z,1021.89
2016-10-26T04:24:27.781Z,1021.91
2016-10-26T04:25:27.759Z,1021.91
2016-10-26T04:26:27.740Z,1021.91
2016-10-26T04:27:27.723Z,1021.88
2016-10-26T04:28:27.708Z,1021.87
2016-10-26T04:29:27.692Z,1021.88
2016-10-26T04:30:27.670Z,1021.9
2016-10-26T04:31:27.656Z,1021.9
2016-10-26T04:32:27.637Z,1021.92
2016-10-26T04:33:27.620Z,1021.95
2016-10-26T04:34:27.605Z,1021.95
2016-10-26T04:35:27.593Z,1021.97
2016-10-26T04:36:27.568Z,1021.99
2016-10-26T04:37:27.551Z,1022.03
2016-10-26T04:38:27.534Z,1022.01
2016-10-26T04:39:27.515Z,1022
2016-10-26T04:40:27.499Z,1021.98
2016-10-26T04:41:27.485Z,1021.99
2016-10-26T04:42:27.463Z,1021.98
2016-10-26T04:43:27.448Z,1022.02
2016-10-26T04:44:27.429Z,1022
2016-10-26T04:45:27.411Z,1022.02
2016-10-26T04:46:27.397Z,1022
2016-10-26T04:47:27.378Z,1022.02
2016-10-26T04:48:27.362Z,1022.02
2016-10-26T04:49:27.343Z,1022.05
2016-10-26T04:50:27.326Z,1022.03
2016-10-26T04:51:27.309Z,1022.06
2016-10-26T04:52:27.291Z,1022.11
2016-10-26T04:53:27.273Z,1022.16
2016-10-26T04:54:27.259Z,1022.12
2016-10-26T04:55:27.244Z,1022.1
2016-10-26T04:56:27.223Z,1022.17
2016-10-26T04:57:27.204Z,1022.11
2016-10-26T04:58:27.189Z,1022.17
2016-10-26T04:59:27.172Z,1022.18
2016-10-26T05:00:27.152Z,1022.14
2016-10-26T05:01:27.137Z,1022.22
2016-10-26T05:02:27.122Z,1022.25
2016-10-26T05:03:27.099Z,1022.2
2016-10-26T05:04:27.084Z,1022.24
2016-10-26T05:05:27.069Z,1022.21
2016-10-26T05:06:27.051Z,1022.2
2016-10-26T05:07:27.036Z,1022.16
2016-10-26T05:08:27.017Z,1022.17
2016-10-26T05:09:27.001Z,1022.13
2016-10-26T05:10:26.982Z,1022.16
2016-10-26T05:11:26.965Z,1022.08
2016-10-26T05:12:26.950Z,1022.08
2016-10-26T05:13:26.929Z,1022.11
2016-10-26T05:14:26.912Z,1022.05
2016-10-26T05:15:26.895Z,1022.07
2016-10-26T05:16:26.880Z,1022
2016-10-26T05:17:26.863Z,1021.97
2016-10-26T05:18:26.843Z,1021.96
2016-10-26T05:19:26.825Z,1021.91
2016-10-26T05:20:26.809Z,1021.92
2016-10-26T05:21:26.793Z,1021.93
2016-10-26T05:22:26.774Z,1021.89
2016-10-26T05:23:26.757Z,1021.93
2016-10-26T05:24:26.740Z,1021.92
2016-10-26T05:25:26.723Z,1022.03
2016-10-26T05:26:26.707Z,1021.99
2016-10-26T05:27:26.724Z,1022.07
2016-10-26T05:28:26.669Z,1022.07
2016-10-26T05:29:26.652Z,1022.04
2016-10-26T05:30:26.635Z,1022.06
2016-10-26T05:31:26.619Z,1022.02
2016-10-26T05:32:26.635Z,1022.03
2016-10-26T05:33:26.587Z,1021.92
2016-10-26T05:34:26.566Z,1021.98
2016-10-26T05:35:26.552Z,1021.98
2016-10-26T05:36:26.531Z,1021.99
2016-10-26T05:37:26.541Z,1021.97
2016-10-26T05:38:26.497Z,1022.01
2016-10-26T05:39:26.480Z,1021.98
2016-10-26T05:40:26.467Z,1022.06
2016-10-26T05:41:26.446Z,1022.11
2016-10-26T05:42:26.477Z,1022.1
2016-10-26T05:43:26.408Z,1022.12
2016-10-26T05:44:26.390Z,1022.12
2016-10-26T05:45:26.378Z,1022.1
2016-10-26T05:46:26.358Z,1022.07
2016-10-26T05:47:26.345Z,1022.12
2016-10-26T05:48:26.322Z,1022.14
2016-10-26T05:49:26.304Z,1022.14
2016-10-26T05:50:26.317Z,1022.12
2016-10-26T05:51:26.272Z,1022.17
2016-10-26T05:52:26.259Z,1022.18
2016-10-26T05:53:26.238Z,1022.19
2016-10-26T05:54:26.223Z,1022.24
2016-10-26T05:55:26.202Z,1022.22
2016-10-26T05:56:26.188Z,1022.23
2016-10-26T05:57:26.169Z,1022.2
2016-10-26T05:58:26.147Z,1022.18
2016-10-26T05:59:26.137Z,1022.24
2016-10-26T06:00:26.115Z,1022.21
2016-10-26T06:01:26.098Z,1022.24
2016-10-26T06:02:26.083Z,1022.16
2016-10-26T06:03:26.064Z,1022.13
2016-10-26T06:04:26.051Z,1022.17
2016-10-26T06:05:26.029Z,1022.17
2016-10-26T06:06:26.012Z,1022.15
2016-10-26T06:07:25.995Z,1022.16
2016-10-26T06:08:25.978Z,1022.2
2016-10-26T06:09:25.961Z,1022.15
2016-10-26T06:10:25.945Z,1022.17
2016-10-26T06:11:25.930Z,1022.15
2016-10-26T06:12:25.907Z,1022.15
2016-10-26T06:13:25.892Z,1022.18
2016-10-26T06:14:25.874Z,1022.14
2016-10-26T06:15:25.862Z,1022.14
2016-10-26T06:16:25.840Z,1022.13
2016-10-26T06:17:25.825Z,1022.12
2016-10-26T06:18:25.804Z,1022.15
2016-10-26T06:19:25.788Z,1022.21
2016-10-26T06:20:25.770Z,1022.22
2016-10-26T06:21:25.751Z,1022.24
2016-10-26T06:22:25.735Z,1022.29
2016-10-26T06:23:25.719Z,1022.34
2016-10-26T06:24:25.705Z,1022.42
2016-10-26T06:25:25.686Z,1022.35
2016-10-26T06:26:25.668Z,1022.37
2016-10-26T06:27:25.647Z,1022.45
2016-10-26T06:28:25.632Z,1022.49
2016-10-26T06:29:25.613Z,1022.52
2016-10-26T06:30:25.597Z,1022.53
2016-10-26T06:31:25.578Z,1022.57
2016-10-26T06:32:25.561Z,1022.57
2016-10-26T06:33:25.544Z,1022.59
2016-10-26T06:34:25.527Z,1022.59
2016-10-26T06:35:25.512Z,1022.59
2016-10-26T06:36:25.493Z,1022.58
2016-10-26T06:37:25.475Z,1022.6
2016-10-26T06:38:25.458Z,1022.57
2016-10-26T06:39:25.441Z,1022.58
2016-10-26T06:40:25.424Z,1022.54
2016-10-26T06:41:25.408Z,1022.59
2016-10-26T06:42:25.395Z,1022.56
2016-10-26T06:43:25.370Z,1022.55
2016-10-26T06:44:25.358Z,1022.51
2016-10-26T06:45:25.337Z,1022.57
2016-10-26T06:46:25.319Z,1022.54
2016-10-26T06:47:25.301Z,1022.53
2016-10-26T06:48:25.286Z,1022.51
2016-10-26T06:49:25.267Z,1022.55
2016-10-26T06:50:25.250Z,1022.55
2016-10-26T06:51:25.232Z,1022.53
2016-10-26T06:52:25.215Z,1022.51
2016-10-26T06:53:25.198Z,1022.47
2016-10-26T06:54:25.179Z,1022.48
2016-10-26T06:55:25.164Z,1022.5
2016-10-26T06:56:25.147Z,1022.52
2016-10-26T06:57:25.139Z,1022.47
2016-10-26T06:58:25.110Z,1022.52
2016-10-26T06:59:25.095Z,1022.49
2016-10-26T07:00:25.078Z,1022.45
2016-10-26T07:01:25.062Z,1022.42
2016-10-26T07:02:25.042Z,1022.47
2016-10-26T07:03:25.024Z,1022.43
2016-10-26T07:04:25.007Z,1022.46
2016-10-26T07:05:24.991Z,1022.35
2016-10-26T07:06:24.975Z,1022.39
2016-10-26T07:07:24.957Z,1022.4
2016-10-26T07:08:24.938Z,1022.39
2016-10-26T07:09:24.922Z,1022.41
2016-10-26T07:10:24.903Z,1022.34
2016-10-26T07:11:24.886Z,1022.33
2016-10-26T07:12:24.871Z,1022.4
2016-10-26T07:13:24.850Z,1022.29
2016-10-26T07:14:24.835Z,1022.31
2016-10-26T07:15:24.818Z,1022.33
2016-10-26T07:16:24.803Z,1022.32
2016-10-26T07:17:24.783Z,1022.33
2016-10-26T07:18:24.766Z,1022.3
2016-10-26T07:19:24.749Z,1022.32
2016-10-26T07:20:24.729Z,1022.36
2016-10-26T07:21:24.714Z,1022.39
2016-10-26T07:22:24.695Z,1022.4
2016-10-26T07:23:24.679Z,1022.38
2016-10-26T07:24:24.661Z,1022.35
2016-10-26T07:25:24.644Z,1022.4
2016-10-26T07:26:24.626Z,1022.37
2016-10-26T07:27:24.609Z,1022.34
2016-10-26T07:28:24.592Z,1022.36
2016-10-26T07:29:24.582Z,1022.39
2016-10-26T07:30:24.556Z,1022.42
2016-10-26T07:31:24.539Z,1022.42
2016-10-26T07:32:24.527Z,1022.46
2016-10-26T07:33:24.506Z,1022.43
2016-10-26T07:34:24.538Z,1022.46
2016-10-26T07:35:24.471Z,1022.46
2016-10-26T07:36:24.454Z,1022.44
2016-10-26T07:37:24.435Z,1022.46
2016-10-26T07:38:24.417Z,1022.49
2016-10-26T07:39:24.400Z,1022.47
2016-10-26T07:40:24.384Z,1022.46
2016-10-26T07:41:24.366Z,1022.46
2016-10-26T07:42:24.348Z,1022.44
2016-10-26T07:43:24.331Z,1022.45
2016-10-26T07:44:24.315Z,1022.46
2016-10-26T07:45:24.298Z,1022.41
2016-10-26T07:46:24.279Z,1022.46
2016-10-26T07:47:24.258Z,1022.44
2016-10-26T07:48:24.245Z,1022.45
2016-10-26T07:49:24.227Z,1022.48
2016-10-26T07:50:24.210Z,1022.5
2016-10-26T07:51:24.191Z,1022.47
2016-10-26T07:52:24.174Z,1022.45
2016-10-26T07:53:24.156Z,1022.44
2016-10-26T07:54:24.141Z,1022.43
2016-10-26T07:55:24.122Z,1022.39
2016-10-26T07:56:24.105Z,1022.35
2016-10-26T07:57:24.087Z,1022.31
2016-10-26T07:58:24.071Z,1022.31
2016-10-26T07:59:24.051Z,1022.28
2016-10-26T08:00:24.036Z,1022.28
2016-10-26T08:01:24.020Z,1022.26
2016-10-26T08:02:24.001Z,1022.32
2016-10-26T08:03:23.986Z,1022.28
2016-10-26T08:04:23.967Z,1022.31
2016-10-26T08:05:23.949Z,1022.32
2016-10-26T08:06:23.932Z,1022.32
2016-10-26T08:07:23.915Z,1022.34
2016-10-26T08:08:23.896Z,1022.34
2016-10-26T08:09:23.878Z,1022.38
2016-10-26T08:10:23.860Z,1022.35
2016-10-26T08:11:23.842Z,1022.39
2016-10-26T08:12:23.825Z,1022.35
2016-10-26T08:13:23.810Z,1022.4
2016-10-26T08:14:23.792Z,1022.38
2016-10-26T08:15:23.776Z,1022.4
2016-10-26T08:16:23.758Z,1022.37
2016-10-26T08:17:23.740Z,1022.46
2016-10-26T08:18:23.723Z,1022.44
2016-10-26T08:19:23.706Z,1022.48
2016-10-26T08:20:23.687Z,1022.52
2016-10-26T08:21:23.670Z,1022.54
2016-10-26T08:22:23.653Z,1022.56
2016-10-26T08:23:23.637Z,1022.55
2016-10-26T08:24:23.622Z,1022.56
2016-10-26T08:25:23.603Z,1022.53
2016-10-26T08:26:23.586Z,1022.57
2016-10-26T08:27:23.568Z,1022.54
2016-10-26T08:28:23.549Z,1022.61
2016-10-26T08:29:23.538Z,1022.62
2016-10-26T08:30:23.517Z,1022.6
2016-10-26T08:31:23.497Z,1022.59
2016-10-26T08:32:23.481Z,1022.57
2016-10-26T08:33:23.463Z,1022.62
2016-10-26T08:34:23.446Z,1022.62
2016-10-26T08:35:23.428Z,1022.63
2016-10-26T08:36:23.411Z,1022.64
2016-10-26T08:37:23.394Z,1022.61
2016-10-26T08:38:23.377Z,1022.64
2016-10-26T08:39:23.362Z,1022.62
2016-10-26T08:40:23.342Z,1022.61
2016-10-26T08:41:23.329Z,1022.65
2016-10-26T08:42:23.310Z,1022.66
2016-10-26T08:43:23.290Z,1022.67
2016-10-26T08:44:23.272Z,1022.71
2016-10-26T08:45:23.256Z,1022.74
2016-10-26T08:46:23.239Z,1022.74
2016-10-26T08:47:23.220Z,1022.72
2016-10-26T08:48:23.203Z,1022.81
2016-10-26T08:49:23.185Z,1022.79
2016-10-26T08:50:23.168Z,1022.79
2016-10-26T08:51:23.149Z,1022.79
2016-10-26T08:52:23.134Z,1022.83
2016-10-26T08:53:23.116Z,1022.77
2016-10-26T08:54:23.099Z,1022.84
2016-10-26T08:55:23.082Z,1022.79
2016-10-26T08:56:23.067Z,1022.77
2016-10-26T08:57:23.047Z,1022.82
2016-10-26T08:58:23.030Z,1022.81
2016-10-26T08:59:23.013Z,1022.87
2016-10-26T09:00:22.996Z,1022.82
2016-10-26T09:01:22.981Z,1022.89
2016-10-26T09:02:22.962Z,1022.87
2016-10-26T09:03:22.945Z,1022.87
2016-10-26T09:04:22.925Z,1022.88
2016-10-26T09:05:22.908Z,1022.83
2016-10-26T09:06:22.889Z,1022.85
2016-10-26T09:07:22.877Z,1022.81
2016-10-26T09:08:22.857Z,1022.79
2016-10-26T09:09:22.843Z,1022.83
2016-10-26T09:10:22.822Z,1022.85
2016-10-26T09:11:22.804Z,1022.87
2016-10-26T09:12:22.787Z,1022.88
2016-10-26T09:13:22.770Z,1022.91
2016-10-26T09:14:22.755Z,1022.88
2016-10-26T09:15:22.736Z,1022.98
2016-10-26T09:16:22.719Z,1022.94
2016-10-26T09:17:22.701Z,1023.03
2016-10-26T09:18:22.684Z,1023
2016-10-26T09:19:22.669Z,1022.97
2016-10-26T09:20:22.650Z,1023.03
2016-10-26T09:21:22.635Z,1023.02
2016-10-26T09:22:22.613Z,1023.02
2016-10-26T09:23:22.598Z,1023.01
2016-10-26T09:24:22.582Z,1023.01
2016-10-26T09:25:22.562Z,1022.92
2016-10-26T09:26:22.546Z,1022.91
2016-10-26T09:27:22.527Z,1022.86
2016-10-26T09:28:22.510Z,1022.81
2016-10-26T09:29:22.495Z,1022.82
2016-10-26T09:30:22.475Z,1022.81
2016-10-26T09:31:22.462Z,1022.83
2016-10-26T09:32:22.443Z,1022.81
2016-10-26T09:33:22.422Z,1022.83
2016-10-26T09:34:22.406Z,1022.91
2016-10-26T09:35:22.389Z,1022.89
2016-10-26T09:36:22.372Z,1022.87
2016-10-26T09:37:22.355Z,1022.87
2016-10-26T09:38:22.337Z,1022.84
2016-10-26T09:39:22.320Z,1022.85
2016-10-26T09:40:22.303Z,1022.87
2016-10-26T09:41:22.285Z,1022.94
2016-10-26T09:42:22.268Z,1022.9
2016-10-26T09:43:22.252Z,1022.9
2016-10-26T09:44:22.234Z,1022.9
2016-10-26T09:45:22.216Z,1022.9
2016-10-26T09:46:22.197Z,1022.86
2016-10-26T09:47:22.181Z,1022.87
2016-10-26T09:48:22.165Z,1022.87
2016-10-26T09:49:22.146Z,1022.9
2016-10-26T09:50:22.133Z,1022.91
2016-10-26T09:51:22.111Z,1022.94
2016-10-26T09:52:22.096Z,1022.94
2016-10-26T09:53:22.080Z,1022.89
2016-10-26T09:54:22.061Z,1022.88
2016-10-26T09:55:22.044Z,1022.9
2016-10-26T09:56:22.027Z,1022.93
2016-10-26T09:57:22.010Z,1022.94
2016-10-26T09:58:21.993Z,1022.95
2016-10-26T09:59:21.975Z,1023.05
2016-10-26T10:00:21.959Z,1023.03
2016-10-26T10:01:21.941Z,1023.06
2016-10-26T10:02:21.922Z,1023.07
2016-10-26T10:03:21.904Z,1023.11
2016-10-26T10:04:21.889Z,1023.1
2016-10-26T10:05:21.871Z,1023.14
2016-10-26T10:06:21.852Z,1023.17
2016-10-26T10:07:21.835Z,1023.22
2016-10-26T10:08:21.816Z,1023.24
2016-10-26T10:09:21.802Z,1023.24
2016-10-26T10:10:21.784Z,1023.21
2016-10-26T10:11:21.770Z,1023.14
2016-10-26T10:12:21.749Z,1023.1
2016-10-26T10:13:21.732Z,1023.07
2016-10-26T10:14:21.713Z,1023.05
2016-10-26T10:15:21.698Z,1023.01
2016-10-26T10:16:21.678Z,1023.04
2016-10-26T10:17:21.662Z,1023.07
2016-10-26T10:18:21.645Z,1023.12
2016-10-26T10:19:21.634Z,1023.09
2016-10-26T10:20:21.611Z,1023.03
2016-10-26T10:21:21.594Z,1022.96
2016-10-26T10:22:21.576Z,1022.92
2016-10-26T10:23:21.557Z,1022.89
2016-10-26T10:24:21.542Z,1022.93
2016-10-26T10:25:21.527Z,1022.87
2016-10-26T10:26:21.508Z,1022.83
2016-10-26T10:27:21.490Z,1022.81
2016-10-26T10:28:21.469Z,1022.85
2016-10-26T10:29:21.454Z,1022.84
2016-10-26T10:30:21.437Z,1022.86
2016-10-26T10:31:21.421Z,1022.85
2016-10-26T10:32:21.403Z,1022.88
2016-10-26T10:33:21.383Z,1022.87
2016-10-26T10:34:21.370Z,1022.84
2016-10-26T10:35:21.351Z,1022.83
2016-10-26T10:36:21.334Z,1022.84
2016-10-26T10:37:21.316Z,1022.78
2016-10-26T10:38:21.299Z,1022.77
2016-10-26T10:39:21.282Z,1022.78
2016-10-26T10:40:21.265Z,1022.76
2016-10-26T10:41:21.247Z,1022.75
2016-10-26T10:42:21.232Z,1022.76
2016-10-26T10:43:21.215Z,1022.75
2016-10-26T10:44:21.194Z,1022.76
2016-10-26T10:45:21.179Z,1022.75
2016-10-26T10:46:21.161Z,1022.73
2016-10-26T10:47:21.146Z,1022.77
2016-10-26T10:48:21.128Z,1022.71
2016-10-26T10:49:21.110Z,1022.74
2016-10-26T10:50:21.089Z,1022.7
2016-10-26T10:51:21.076Z,1022.65
2016-10-26T10:52:21.061Z,1022.66
2016-10-26T10:53:21.041Z,1022.61
2016-10-26T10:54:21.028Z,1022.62
2016-10-26T10:55:21.006Z,1022.62
2016-10-26T10:56:20.990Z,1022.63
2016-10-26T10:57:20.972Z,1022.63
2016-10-26T10:58:20.955Z,1022.66
2016-10-26T10:59:20.937Z,1022.67
2016-10-26T11:00:20.920Z,1022.74
2016-10-26T11:01:20.904Z,1022.67
2016-10-26T11:02:20.884Z,1022.77
2016-10-26T11:03:20.867Z,1022.72
2016-10-26T11:04:20.852Z,1022.78
2016-10-26T11:05:20.832Z,1022.73
2016-10-26T11:06:20.817Z,1022.77
2016-10-26T11:07:20.801Z,1022.81
2016-10-26T11:08:20.781Z,1022.8
2016-10-26T11:09:20.764Z,1022.84
2016-10-26T11:10:20.749Z,1022.78
2016-10-26T11:11:20.729Z,1022.83
2016-10-26T11:12:20.720Z,1022.89
2016-10-26T11:13:20.695Z,1022.88
2016-10-26T11:14:20.677Z,1022.86
2016-10-26T11:15:20.661Z,1022.9
2016-10-26T11:16:20.643Z,1022.93
2016-10-26T11:17:20.626Z,1022.91
2016-10-26T11:18:20.611Z,1022.95
2016-10-26T11:19:20.590Z,1022.92
2016-10-26T11:20:20.574Z,1022.97
2016-10-26T11:21:20.557Z,1022.97
2016-10-26T11:22:20.540Z,1022.92
2016-10-26T11:23:20.523Z,1022.93
2016-10-26T11:24:20.506Z,1022.93
2016-10-26T11:25:20.489Z,1022.9
2016-10-26T11:26:20.469Z,1022.88
2016-10-26T11:27:20.456Z,1022.86
2016-10-26T11:28:20.439Z,1022.91
2016-10-26T11:29:20.421Z,1022.89
2016-10-26T11:30:20.403Z,1022.91
2016-10-26T11:31:20.388Z,1022.9
2016-10-26T11:32:20.366Z,1022.87
2016-10-26T11:33:20.351Z,1022.87
2016-10-26T11:34:20.334Z,1022.9
2016-10-26T11:35:20.316Z,1022.89
2016-10-26T11:36:20.299Z,1022.88
2016-10-26T11:37:20.280Z,1022.81
2016-10-26T11:38:20.265Z,1022.85
2016-10-26T11:39:20.250Z,1022.84
2016-10-26T11:40:20.231Z,1022.88
2016-10-26T11:41:20.214Z,1022.94
2016-10-26T11:42:20.196Z,1022.9
2016-10-26T11:43:20.183Z,1022.88
2016-10-26T11:44:20.168Z,1022.88
2016-10-26T11:45:20.145Z,1022.81
2016-10-26T11:46:20.128Z,1022.8
2016-10-26T11:47:20.111Z,1022.83
2016-10-26T11:48:20.097Z,1022.8
2016-10-26T11:49:20.076Z,1022.82
2016-10-26T11:50:20.060Z,1022.83
2016-10-26T11:51:20.042Z,1022.85
2016-10-26T11:52:20.023Z,1022.83
2016-10-26T11:53:20.007Z,1022.84
2016-10-26T11:54:19.990Z,1022.85
2016-10-26T11:55:19.971Z,1022.82
2016-10-26T11:56:19.956Z,1022.81
2016-10-26T11:57:19.938Z,1022.78
2016-10-26T11:58:19.921Z,1022.76
2016-10-26T11:59:19.904Z,1022.74
2016-10-26T12:00:19.888Z,1022.77
2016-10-26T12:01:19.868Z,1022.74
2016-10-26T12:02:19.854Z,1022.75
2016-10-26T12:03:19.835Z,1022.73
2016-10-26T12:04:19.818Z,1022.73
2016-10-26T12:05:19.803Z,1022.77
2016-10-26T12:06:19.784Z,1022.76
2016-10-26T12:07:19.767Z,1022.72
2016-10-26T12:08:19.749Z,1022.76